createdAt,value
2023-05-15T00:01:46.107Z,80.40
2023-05-15T00:04:14.165Z,80.05
2023-05-15T00:06:42.287Z,78.75
2023-05-15T00:09:11.961Z,77.60
2023-05-15T00:11:39.977Z,76.84
2023-05-15T00:14:08.053Z,76.74
2023-05-15T00:16:36.096Z,76.08
2023-05-15T00:19:04.306Z,75.81
2023-05-15T00:21:32.257Z,75.86
2023-05-15T00:24:00.626Z,77.69
2023-05-15T00:26:30.143Z,80.21
2023-05-15T00:28:58.259Z,81.53
2023-05-15T00:31:26.294Z,82.51
2023-05-15T00:33:54.287Z,83.45
2023-05-15T00:36:24.276Z,84.02
2023-05-15T00:38:52.280Z,83.78
2023-05-15T00:41:21.708Z,83.96
2023-05-15T00:43:52.247Z,84.64
2023-05-15T00:46:21.784Z,84.97
2023-05-15T00:48:51.590Z,85.38
2023-05-15T00:51:19.557Z,85.24
2023-05-15T00:53:47.523Z,84.43
2023-05-15T00:56:17.530Z,83.57
2023-05-15T00:58:47.478Z,83.31
2023-05-15T01:01:18.299Z,83.37
2023-05-15T01:03:46.992Z,83.36
2023-05-15T01:06:14.912Z,83.31
2023-05-15T01:08:44.811Z,82.83
2023-05-15T01:11:14.254Z,82.61
2023-05-15T01:13:42.499Z,82.89
2023-05-15T01:16:11.235Z,82.70
2023-05-15T01:18:40.730Z,82.63
2023-05-15T01:21:48.189Z,82.39
2023-05-15T01:24:31.843Z,82.81
2023-05-15T01:27:16.970Z,82.89
2023-05-15T01:29:56.859Z,82.99
2023-05-15T01:32:33.373Z,83.25
2023-05-15T01:35:10.273Z,83.18
2023-05-15T01:37:42.442Z,83.23
2023-05-15T01:40:13.021Z,83.07
2023-05-15T01:42:52.514Z,82.93
2023-05-15T01:45:22.807Z,83.17
2023-05-15T01:47:51.339Z,83.33
2023-05-15T01:50:21.473Z,83.17
2023-05-15T01:52:52.254Z,83.39
2023-05-15T01:55:22.074Z,83.58
2023-05-15T01:57:53.387Z,83.76
2023-05-15T02:00:23.258Z,84.14
2023-05-15T02:02:52.021Z,84.56
2023-05-15T02:05:20.487Z,84.92
2023-05-15T02:07:49.464Z,84.55
2023-05-15T02:10:19.537Z,84.10
2023-05-15T02:12:49.497Z,83.91
2023-05-15T02:15:21.853Z,83.83
2023-05-15T02:17:49.957Z,83.71
2023-05-15T02:20:18.321Z,83.87
2023-05-15T02:22:46.281Z,84.38
2023-05-15T02:25:16.304Z,84.88
2023-05-15T02:27:50.112Z,85.43
2023-05-15T02:30:34.427Z,87.08
2023-05-15T02:33:11.715Z,87.81
2023-05-15T02:35:46.844Z,87.31
2023-05-15T02:38:21.257Z,86.48
2023-05-15T02:40:49.732Z,86.19
2023-05-15T02:43:19.834Z,85.71
2023-05-15T02:45:50.785Z,85.27
2023-05-15T02:48:19.527Z,84.99
2023-05-15T02:50:47.525Z,84.97
2023-05-15T02:53:16.216Z,84.84
2023-05-15T02:55:44.380Z,84.88
2023-05-15T02:58:12.519Z,85.09
2023-05-15T03:00:40.555Z,85.17
2023-05-15T03:03:09.912Z,85.47
2023-05-15T03:05:37.836Z,85.70
2023-05-15T03:08:06.548Z,85.88
2023-05-15T03:10:34.534Z,85.85
2023-05-15T03:13:02.498Z,85.60
2023-05-15T03:15:30.464Z,85.24
2023-05-15T03:17:58.493Z,85.16
2023-05-15T03:20:27.937Z,85.19
2023-05-15T03:22:56.170Z,85.32
2023-05-15T03:25:24.638Z,85.77
2023-05-15T03:27:52.762Z,86.03
2023-05-15T03:30:20.916Z,85.77
2023-05-15T03:32:48.922Z,85.22
2023-05-15T03:35:17.024Z,85.03
2023-05-15T03:37:46.417Z,84.93
2023-05-15T03:40:15.305Z,85.21
2023-05-15T03:42:43.259Z,84.78
2023-05-15T03:45:11.369Z,84.78
2023-05-15T03:47:41.132Z,84.79
2023-05-15T03:50:09.597Z,85.16
2023-05-15T03:52:39.513Z,85.53
2023-05-15T03:55:09.861Z,85.41
2023-05-15T03:57:37.811Z,85.28
2023-05-15T04:00:10.325Z,84.69
2023-05-15T04:02:41.677Z,84.95
2023-05-15T04:05:10.848Z,84.74
2023-05-15T04:07:39.125Z,85.10
2023-05-15T04:10:09.634Z,86.21
2023-05-15T04:12:37.924Z,86.33
2023-05-15T04:15:16.424Z,86.11
2023-05-15T04:17:44.802Z,85.54
2023-05-15T04:20:15.349Z,85.79
2023-05-15T04:22:43.852Z,86.76
2023-05-15T04:25:14.757Z,86.28
2023-05-15T04:27:43.841Z,86.69
2023-05-15T04:30:13.051Z,86.86
2023-05-15T04:32:42.385Z,87.30
2023-05-15T04:35:12.604Z,87.04
2023-05-15T04:37:41.479Z,87.20
2023-05-15T04:40:10.721Z,87.37
2023-05-15T04:42:40.140Z,87.14
2023-05-15T04:45:09.511Z,87.04
2023-05-15T04:47:38.082Z,86.89
2023-05-15T04:50:07.652Z,87.02
2023-05-15T04:52:35.633Z,86.95
2023-05-15T04:55:03.672Z,87.70
2023-05-15T04:57:31.659Z,87.73
2023-05-15T05:00:01.021Z,87.44
2023-05-15T05:02:29.002Z,86.65
2023-05-15T05:04:56.983Z,86.86
2023-05-15T05:07:24.925Z,86.78
2023-05-15T05:09:53.280Z,86.31
2023-05-15T05:12:21.189Z,86.48
2023-05-15T05:14:49.391Z,86.10
2023-05-15T05:17:18.947Z,86.44
2023-05-15T05:19:46.876Z,86.79
2023-05-15T05:22:14.843Z,87.15
2023-05-15T05:24:42.744Z,86.80
2023-05-15T05:27:11.038Z,86.95
2023-05-15T05:29:40.069Z,86.96
2023-05-15T05:32:08.724Z,87.50
2023-05-15T05:34:38.204Z,87.19
2023-05-15T05:37:06.575Z,87.29
2023-05-15T05:39:34.701Z,88.12
2023-05-15T05:42:02.634Z,88.12
2023-05-15T05:44:30.618Z,88.87
2023-05-15T05:46:58.681Z,89.92
2023-05-15T05:49:26.763Z,89.50
2023-05-15T05:51:56.144Z,89.53
2023-05-15T05:54:24.170Z,88.60
2023-05-15T05:56:52.064Z,88.88
2023-05-15T05:59:20.048Z,89.61
2023-05-15T06:01:49.259Z,89.56
2023-05-15T06:04:18.321Z,89.66
2023-05-15T06:06:46.380Z,88.93
2023-05-15T06:09:15.755Z,88.71
2023-05-15T06:11:43.689Z,87.71
2023-05-15T06:14:11.676Z,87.27
2023-05-15T06:16:39.645Z,86.91
2023-05-15T06:19:07.974Z,85.57
2023-05-15T06:21:36.077Z,85.34
2023-05-15T06:24:04.053Z,84.81
2023-05-15T06:26:33.496Z,84.77
2023-05-15T06:29:01.404Z,84.97
2023-05-15T06:31:29.410Z,84.83
2023-05-15T06:33:57.392Z,84.86
2023-05-15T06:36:25.391Z,84.59
2023-05-15T06:38:53.354Z,85.29
2023-05-15T06:41:21.613Z,85.28
2023-05-15T06:43:50.925Z,85.04
2023-05-15T06:46:19.310Z,84.68
2023-05-15T06:48:48.240Z,84.33
2023-05-15T06:51:16.277Z,83.45
2023-05-15T06:53:44.401Z,82.99
2023-05-15T06:56:12.388Z,81.15
2023-05-15T06:58:40.317Z,80.54
2023-05-15T07:01:10.088Z,82.04
2023-05-15T07:03:38.053Z,82.19
2023-05-15T07:06:06.009Z,82.47
2023-05-15T07:08:34.015Z,81.15
2023-05-15T07:11:02.040Z,80.95
2023-05-15T07:13:30.021Z,81.04
2023-05-15T07:15:58.059Z,81.04
2023-05-15T07:18:27.468Z,82.37
2023-05-15T07:20:55.507Z,82.08
2023-05-15T07:23:23.535Z,81.96
2023-05-15T07:25:51.449Z,81.00
2023-05-15T07:28:19.355Z,81.83
2023-05-15T07:30:47.508Z,81.05
2023-05-15T07:33:15.741Z,80.56
2023-05-15T07:35:45.082Z,79.66
2023-05-15T07:38:13.285Z,78.73
2023-05-15T07:40:41.288Z,77.79
2023-05-15T07:43:10.246Z,76.92
2023-05-15T07:45:38.312Z,77.75
2023-05-15T07:48:16.659Z,78.51
2023-05-15T07:50:47.122Z,78.96
2023-05-15T07:53:16.839Z,79.48
2023-05-15T07:55:45.296Z,78.83
2023-05-15T07:58:13.614Z,78.82
2023-05-15T08:00:41.670Z,79.77
2023-05-15T08:03:10.157Z,79.61
2023-05-15T08:05:38.189Z,79.29
2023-05-15T08:08:07.559Z,79.09
2023-05-15T08:10:35.554Z,77.80
2023-05-15T08:13:03.482Z,76.12
2023-05-15T08:15:31.505Z,73.72
2023-05-15T08:17:59.448Z,71.79
2023-05-15T08:20:27.393Z,69.96
2023-05-15T08:22:55.346Z,70.06
2023-05-15T08:25:24.885Z,67.76
2023-05-15T08:27:53.051Z,67.97
2023-05-15T08:30:21.002Z,67.61
2023-05-15T08:32:49.019Z,67.00
2023-05-15T08:35:16.990Z,67.63
2023-05-15T08:37:44.983Z,66.73
2023-05-15T08:40:13.786Z,67.28
2023-05-15T08:42:46.372Z,66.21
2023-05-15T08:45:15.223Z,67.01
2023-05-15T08:47:44.231Z,66.49
2023-05-15T08:50:15.201Z,65.34
2023-05-15T08:52:45.480Z,66.13
2023-05-15T08:55:14.415Z,65.90
2023-05-15T08:57:45.108Z,65.45
2023-05-15T09:00:14.912Z,64.91
2023-05-15T09:02:44.043Z,65.12
2023-05-15T09:05:12.129Z,63.77
2023-05-15T09:07:41.170Z,64.21
2023-05-15T09:10:10.899Z,63.75
2023-05-15T09:12:44.972Z,63.18
2023-05-15T09:15:17.268Z,64.40
2023-05-15T09:17:46.596Z,64.70
2023-05-15T09:20:27.807Z,64.87
2023-05-15T09:22:56.051Z,65.65
2023-05-15T09:25:40.866Z,65.41
2023-05-15T09:28:11.745Z,65.88
2023-05-15T09:30:40.539Z,66.04
2023-05-15T09:33:08.544Z,66.21
2023-05-15T09:35:37.899Z,66.48
2023-05-15T09:38:11.541Z,66.09
2023-05-15T09:40:40.438Z,66.91
2023-05-15T09:43:13.050Z,67.37
2023-05-15T09:45:41.123Z,67.20
2023-05-15T09:48:11.902Z,67.02
2023-05-15T09:50:41.055Z,66.82
2023-05-15T09:53:13.127Z,66.61
2023-05-15T09:55:43.416Z,67.43
2023-05-15T09:58:14.154Z,66.92
2023-05-15T10:00:48.694Z,66.18
2023-05-15T10:03:19.759Z,67.77
2023-05-15T10:05:48.101Z,66.30
2023-05-15T10:08:16.197Z,65.22
2023-05-15T10:10:44.647Z,63.32
2023-05-15T10:13:14.184Z,62.82
2023-05-15T10:15:43.189Z,62.42
2023-05-15T10:18:12.179Z,62.15
2023-05-15T10:20:40.571Z,62.08
2023-05-15T10:23:11.864Z,62.04
2023-05-15T10:25:43.811Z,61.80
2023-05-15T10:28:13.459Z,62.40
2023-05-15T10:30:43.135Z,62.81
2023-05-15T10:33:14.214Z,63.29
2023-05-15T10:35:43.636Z,62.85
2023-05-15T10:38:13.780Z,62.94
2023-05-15T10:40:42.798Z,62.72
2023-05-15T10:43:12.120Z,63.40
2023-05-15T10:45:42.385Z,63.31
2023-05-15T10:48:12.553Z,62.47
2023-05-15T10:50:40.756Z,61.08
2023-05-15T10:53:10.876Z,61.47
2023-05-15T10:55:38.937Z,60.65
2023-05-15T10:58:10.341Z,61.29
2023-05-15T11:00:45.369Z,60.49
2023-05-15T11:03:15.773Z,60.14
2023-05-15T11:06:09.419Z,57.05
2023-05-15T11:08:37.712Z,59.04
2023-05-15T11:11:05.752Z,58.61
2023-05-15T11:14:10.238Z,56.73
2023-05-15T11:17:03.992Z,58.01
2023-05-15T11:19:40.509Z,56.61
2023-05-15T11:22:19.541Z,55.57
2023-05-15T11:24:54.970Z,56.41
2023-05-15T11:27:24.760Z,56.07
2023-05-15T11:30:18.208Z,52.51
2023-05-15T11:32:57.311Z,55.13
2023-05-15T11:35:28.565Z,55.36
2023-05-15T11:37:58.002Z,57.10
2023-05-15T11:40:28.051Z,57.01
2023-05-15T11:43:20.699Z,56.64
2023-05-15T11:45:50.172Z,56.83
2023-05-15T11:48:20.770Z,56.37
2023-05-15T11:50:48.857Z,55.73
2023-05-15T11:53:17.486Z,54.90
2023-05-15T11:55:45.956Z,54.69
2023-05-15T11:58:16.055Z,55.13
2023-05-15T12:00:44.669Z,54.72
2023-05-15T12:03:16.180Z,53.07
2023-05-15T12:05:57.482Z,53.46
2023-05-15T12:08:28.105Z,53.29
2023-05-15T12:10:59.605Z,51.99
2023-05-15T12:13:27.625Z,51.93
2023-05-15T12:15:57.312Z,52.13
2023-05-15T12:18:25.649Z,51.93
2023-05-15T12:20:55.902Z,52.97
2023-05-15T12:23:25.540Z,54.70
2023-05-15T12:25:58.677Z,55.61
2023-05-15T12:28:27.895Z,55.21
2023-05-15T12:30:56.468Z,55.27
2023-05-15T12:33:24.989Z,55.98
2023-05-15T12:35:59.147Z,55.23
2023-05-15T12:38:29.119Z,55.20
2023-05-15T12:40:57.450Z,54.92
2023-05-15T12:43:26.820Z,54.84
2023-05-15T12:45:55.510Z,55.48
2023-05-15T12:48:23.621Z,56.23
2023-05-15T12:50:51.704Z,56.79
2023-05-15T12:53:22.942Z,55.78
2023-05-15T12:55:52.347Z,55.86
2023-05-15T12:58:21.108Z,55.87
2023-05-15T13:00:50.854Z,56.78
2023-05-15T13:03:21.633Z,56.93
2023-05-15T13:05:49.728Z,57.09
2023-05-15T13:08:18.971Z,58.01
2023-05-15T13:10:56.724Z,57.70
2023-05-15T13:13:24.805Z,56.99
2023-05-15T13:15:52.795Z,57.59
2023-05-15T13:18:20.726Z,57.67
2023-05-15T13:20:50.240Z,56.49
2023-05-15T13:23:20.694Z,55.96
2023-05-15T13:25:49.985Z,56.08
2023-05-15T13:28:17.953Z,55.40
2023-05-15T13:30:45.946Z,55.93
2023-05-15T13:33:14.422Z,56.25
2023-05-15T13:35:44.052Z,55.71
2023-05-15T13:38:12.703Z,55.67
2023-05-15T13:40:41.022Z,54.42
2023-05-15T13:43:10.338Z,54.68
2023-05-15T13:45:38.272Z,53.96
2023-05-15T13:48:06.753Z,52.45
2023-05-15T13:50:34.769Z,52.73
2023-05-15T13:53:02.674Z,51.15
2023-05-15T13:55:31.569Z,51.05
2023-05-15T13:57:59.947Z,50.38
2023-05-15T14:00:29.633Z,49.87
2023-05-15T14:02:57.575Z,50.13
2023-05-15T14:05:25.574Z,49.73
2023-05-15T14:07:53.525Z,49.13
2023-05-15T14:10:21.497Z,48.27
2023-05-15T14:12:49.394Z,48.84
2023-05-15T14:15:17.598Z,47.97
2023-05-15T14:17:48.727Z,48.78
2023-05-15T14:20:16.751Z,49.44
2023-05-15T14:22:44.720Z,50.15
2023-05-15T14:25:12.649Z,49.53
2023-05-15T14:27:41.012Z,48.67
2023-05-15T14:30:10.069Z,49.17
2023-05-15T14:32:38.051Z,48.36
2023-05-15T14:35:08.171Z,46.81
2023-05-15T14:37:37.691Z,48.01
2023-05-15T14:40:07.128Z,48.59
2023-05-15T14:42:35.112Z,46.99
2023-05-15T14:45:03.078Z,48.13
2023-05-15T14:47:31.028Z,48.79
2023-05-15T14:49:58.997Z,48.29
2023-05-15T14:52:28.298Z,49.08
2023-05-15T14:55:08.581Z,48.72
2023-05-15T14:57:37.576Z,50.35
2023-05-15T15:00:07.241Z,51.18
2023-05-15T15:02:35.502Z,50.23
2023-05-15T15:05:04.584Z,50.04
2023-05-15T15:08:01.729Z,47.22
2023-05-15T15:10:30.119Z,48.97
2023-05-15T15:12:58.352Z,50.23
2023-05-15T15:15:27.043Z,50.05
2023-05-15T15:17:56.173Z,49.50
2023-05-15T15:20:25.358Z,50.30
2023-05-15T15:22:55.304Z,51.94
2023-05-15T15:25:23.632Z,51.94
2023-05-15T15:27:51.566Z,51.09
2023-05-15T15:30:20.065Z,51.52
2023-05-15T15:32:48.054Z,50.56
2023-05-15T15:35:16.075Z,50.57
2023-05-15T15:37:44.260Z,51.17
2023-05-15T15:40:13.829Z,51.59
2023-05-15T15:42:41.736Z,51.10
2023-05-15T15:45:10.020Z,51.94
2023-05-15T15:47:37.976Z,52.49
2023-05-15T15:50:06.841Z,53.21
2023-05-15T15:52:34.818Z,53.17
2023-05-15T15:55:02.801Z,52.45
2023-05-15T15:57:34.019Z,52.10
2023-05-15T16:00:02.103Z,52.54
2023-05-15T16:02:32.980Z,52.75
2023-05-15T16:05:01.069Z,52.74
2023-05-15T16:07:29.137Z,53.42
2023-05-15T16:10:10.542Z,52.98
2023-05-15T16:12:42.432Z,53.25
2023-05-15T16:17:41.918Z,53.68
2023-05-15T16:20:10.639Z,53.66
2023-05-15T16:22:38.560Z,54.29
2023-05-15T16:25:07.066Z,54.89
2023-05-15T16:27:35.014Z,53.73
2023-05-15T16:30:04.627Z,53.94
2023-05-15T16:32:34.037Z,54.29
2023-05-15T16:35:02.090Z,54.18
2023-05-15T16:37:30.028Z,54.63
2023-05-15T16:39:57.988Z,54.29
2023-05-15T16:42:26.309Z,54.03
2023-05-15T16:44:54.240Z,54.22
2023-05-15T16:47:23.595Z,54.22
2023-05-15T16:49:51.510Z,54.23
2023-05-15T16:52:19.398Z,54.93
2023-05-15T16:54:47.326Z,54.84
2023-05-15T16:57:15.298Z,54.47
2023-05-15T16:59:43.218Z,54.30
2023-05-15T17:02:11.307Z,53.59
2023-05-15T17:04:40.900Z,53.30
2023-05-15T17:07:09.264Z,53.94
2023-05-15T17:09:39.046Z,53.17
2023-05-15T17:12:07.850Z,52.76
2023-05-15T17:14:35.769Z,52.54
2023-05-15T17:17:03.752Z,52.75
2023-05-15T17:19:33.464Z,52.08
2023-05-15T17:22:02.784Z,52.26
2023-05-15T17:24:46.288Z,52.82
2023-05-15T17:27:19.345Z,51.96
2023-05-15T17:29:47.578Z,52.35
2023-05-15T17:32:16.818Z,51.74
2023-05-15T17:34:45.441Z,52.11
2023-05-15T17:37:15.168Z,51.27
2023-05-15T17:39:43.225Z,51.00
2023-05-15T17:42:11.132Z,51.09
2023-05-15T17:44:39.306Z,51.51
2023-05-15T17:47:08.548Z,52.17
2023-05-15T17:49:36.520Z,52.85
2023-05-15T17:52:04.513Z,53.15
2023-05-15T17:54:33.868Z,53.71
2023-05-15T17:57:01.856Z,54.18
2023-05-15T17:59:30.952Z,54.63
2023-05-15T18:01:59.153Z,55.28
2023-05-15T18:04:27.385Z,55.29
2023-05-15T18:06:55.531Z,55.40
2023-05-15T18:09:24.340Z,56.14
2023-05-15T18:11:54.115Z,55.86
2023-05-15T18:14:21.992Z,55.66
2023-05-15T18:16:49.898Z,56.45
2023-05-15T18:19:18.244Z,56.47
2023-05-15T18:21:46.350Z,55.94
2023-05-15T18:24:14.288Z,55.86
2023-05-15T18:26:42.299Z,56.10
2023-05-15T18:29:11.698Z,56.07
2023-05-15T18:31:39.717Z,56.50
2023-05-15T18:34:07.752Z,56.36
2023-05-15T18:36:35.856Z,57.20
2023-05-15T18:39:04.020Z,57.27
2023-05-15T18:41:31.974Z,58.03
2023-05-15T18:43:59.912Z,58.46
2023-05-15T18:46:31.192Z,58.44
2023-05-15T18:48:59.723Z,58.41
2023-05-15T18:51:27.642Z,58.80
2023-05-15T18:53:55.654Z,58.77
2023-05-15T18:56:24.978Z,58.58
2023-05-15T18:58:52.974Z,58.62
2023-05-15T19:01:20.949Z,59.13
2023-05-15T19:03:50.304Z,59.92
2023-05-15T19:06:20.252Z,60.45
2023-05-15T19:08:49.287Z,60.80
2023-05-15T19:11:18.065Z,61.19
2023-05-15T19:13:45.973Z,61.87
2023-05-15T19:16:13.963Z,62.68
2023-05-15T19:18:42.310Z,63.04
2023-05-15T19:21:12.775Z,64.02
2023-05-15T19:23:40.847Z,64.41
2023-05-15T19:26:10.374Z,64.81
2023-05-15T19:28:38.328Z,65.14
2023-05-15T19:31:09.668Z,65.67
2023-05-15T19:33:42.228Z,65.38
2023-05-15T19:36:10.450Z,65.22
2023-05-15T19:38:39.899Z,65.28
2023-05-15T19:41:08.104Z,65.75
2023-05-15T19:43:37.425Z,65.81
2023-05-15T19:46:05.380Z,66.27
2023-05-15T19:48:33.495Z,66.04
2023-05-15T19:51:01.382Z,66.19
2023-05-15T19:53:29.390Z,66.01
2023-05-15T19:55:59.141Z,66.33
2023-05-15T19:58:27.112Z,65.64
2023-05-15T20:00:55.215Z,65.67
2023-05-15T20:03:23.239Z,65.45
2023-05-15T20:05:52.091Z,65.28
2023-05-15T20:08:19.972Z,65.42
2023-05-15T20:10:52.324Z,65.90
2023-05-15T20:13:22.157Z,66.11
2023-05-15T20:15:54.849Z,65.89
2023-05-15T20:18:23.690Z,65.46
2023-05-15T20:20:52.386Z,65.19
2023-05-15T20:23:20.811Z,65.79
2023-05-15T20:25:50.310Z,66.38
2023-05-15T20:28:18.510Z,66.26
2023-05-15T20:30:48.220Z,66.38
2023-05-15T20:33:16.222Z,65.53
2023-05-15T20:35:45.497Z,65.68
2023-05-15T20:38:14.558Z,65.72
2023-05-15T20:40:42.418Z,66.05
2023-05-15T20:43:10.306Z,65.08
2023-05-15T20:45:38.321Z,65.00
2023-05-15T20:48:08.699Z,65.17
2023-05-15T20:50:36.693Z,65.28
2023-05-15T20:53:04.565Z,65.73
2023-05-15T20:55:32.551Z,65.15
2023-05-15T20:58:00.529Z,65.93
2023-05-15T21:00:28.793Z,65.56
2023-05-15T21:02:56.951Z,66.26
2023-05-15T21:05:26.274Z,65.77
2023-05-15T21:07:54.220Z,65.55
2023-05-15T21:10:22.132Z,65.82
2023-05-15T21:12:50.073Z,65.93
2023-05-15T21:15:18.011Z,66.37
2023-05-15T21:17:46.025Z,65.85
2023-05-15T21:20:14.080Z,66.05
2023-05-15T21:22:43.479Z,65.76
2023-05-15T21:25:12.336Z,65.82
2023-05-15T21:27:40.584Z,66.13
2023-05-15T21:30:09.761Z,65.83
2023-05-15T21:32:37.783Z,66.40
2023-05-15T21:35:06.302Z,66.93
2023-05-15T21:37:34.192Z,66.20
2023-05-15T21:40:03.607Z,67.20
2023-05-15T21:42:31.630Z,66.94
2023-05-15T21:44:59.949Z,66.89
2023-05-15T21:47:28.141Z,66.51
2023-05-15T21:49:56.554Z,67.20
2023-05-15T21:52:24.536Z,67.19
2023-05-15T21:54:52.455Z,68.08
2023-05-15T21:57:21.755Z,68.30
2023-05-15T21:59:49.644Z,68.83
2023-05-15T22:02:17.584Z,68.50
2023-05-15T22:04:45.704Z,68.62
2023-05-15T22:07:14.857Z,68.72
2023-05-15T22:09:44.328Z,68.62
2023-05-15T22:12:12.334Z,68.97
2023-05-15T22:14:54.483Z,68.36
2023-05-15T22:17:27.136Z,69.04
2023-05-15T22:20:01.721Z,68.88
2023-05-15T22:22:29.660Z,68.83
2023-05-15T22:24:57.570Z,69.25
2023-05-15T22:27:27.748Z,69.43
2023-05-15T22:29:57.166Z,69.51
2023-05-15T22:32:25.913Z,69.27
2023-05-15T22:34:53.900Z,69.39
2023-05-15T22:37:21.906Z,69.57
2023-05-15T22:39:49.879Z,69.64
2023-05-15T22:42:18.563Z,69.22
2023-05-15T22:44:46.548Z,69.84
2023-05-15T22:47:16.030Z,69.24
2023-05-15T22:49:43.938Z,69.19
2023-05-15T22:52:13.633Z,69.73
2023-05-15T22:54:42.138Z,69.31
2023-05-15T22:57:10.284Z,69.53
2023-05-15T22:59:38.427Z,69.71
2023-05-15T23:02:06.558Z,70.00
2023-05-15T23:04:36.289Z,69.72
2023-05-15T23:07:04.269Z,69.88
2023-05-15T23:09:32.220Z,70.04
2023-05-15T23:12:00.685Z,70.36
2023-05-15T23:14:28.712Z,70.08
2023-05-15T23:16:56.861Z,70.70
2023-05-15T23:19:24.863Z,71.09
2023-05-15T23:21:54.256Z,70.86
2023-05-15T23:24:22.172Z,71.83
2023-05-15T23:26:50.061Z,71.67
2023-05-15T23:29:17.976Z,72.19
2023-05-15T23:31:45.974Z,72.29
2023-05-15T23:34:14.140Z,73.56
2023-05-15T23:36:42.104Z,73.68
2023-05-15T23:39:11.423Z,73.87
2023-05-15T23:41:39.335Z,73.99
2023-05-15T23:44:07.251Z,74.00
2023-05-15T23:46:35.558Z,73.84
2023-05-15T23:49:03.513Z,73.63
2023-05-15T23:51:31.593Z,74.38
2023-05-15T23:53:59.471Z,73.93
2023-05-15T23:56:28.753Z,73.39
2023-05-15T23:58:56.976Z,73.30
